createdAt,value
2019-05-18T00:03:18.526Z,31.42
2019-05-18T00:08:22.762Z,30.88
2019-05-18T00:13:27.115Z,27.52
2019-05-18T00:18:31.377Z,29.07
2019-05-18T00:23:35.633Z,30.08
2019-05-18T00:28:39.891Z,29.80
2019-05-18T00:33:44.122Z,34.75
2019-05-18T00:38:48.614Z,31.10
2019-05-18T00:43:52.882Z,31.82
2019-05-18T00:48:57.164Z,30.97
2019-05-18T00:54:01.435Z,35.43
2019-05-18T00:59:05.695Z,33.60
2019-05-18T01:04:09.946Z,32.42
2019-05-18T01:09:14.187Z,35.45
2019-05-18T01:14:18.437Z,38.13
2019-05-18T01:19:22.705Z,34.50
2019-05-18T01:24:26.945Z,36.03
2019-05-18T01:29:31.181Z,39.00
2019-05-18T01:34:35.438Z,36.48
2019-05-18T01:39:39.818Z,39.18
2019-05-18T01:44:44.067Z,39.75
2019-05-18T01:49:48.339Z,39.05
2019-05-18T01:54:52.595Z,39.03
2019-05-18T01:59:56.840Z,40.30
2019-05-18T02:05:01.091Z,43.15
2019-05-18T02:10:06.170Z,43.48
2019-05-18T02:15:10.850Z,44.88
2019-05-18T02:20:15.302Z,42.98
2019-05-18T02:25:19.846Z,48.92
2019-05-18T02:30:24.101Z,43.87
2019-05-18T02:35:28.350Z,47.70
2019-05-18T02:40:32.592Z,49.88
2019-05-18T02:45:36.864Z,42.50
2019-05-18T02:50:41.148Z,44.90
2019-05-18T02:55:45.414Z,48.65
2019-05-18T03:00:49.674Z,46.23
2019-05-18T03:05:53.933Z,52.40
2019-05-18T03:10:58.208Z,47.10
2019-05-18T03:16:02.646Z,46.50
2019-05-18T03:21:06.883Z,48.10
2019-05-18T03:26:11.164Z,49.88
2019-05-18T03:31:15.407Z,49.98
2019-05-18T03:36:19.615Z,51.75
2019-05-18T03:41:23.858Z,53.45
2019-05-18T03:46:28.111Z,49.58
2019-05-18T03:51:32.400Z,56.28
2019-05-18T03:56:36.629Z,53.30
2019-05-18T04:01:40.895Z,55.67
2019-05-18T04:06:45.151Z,51.73
2019-05-18T04:11:49.447Z,51.65
2019-05-18T04:16:57.714Z,50.08
2019-05-18T04:22:01.964Z,52.60
2019-05-18T04:27:06.187Z,56.35
2019-05-18T04:32:10.447Z,59.90
2019-05-18T04:37:14.693Z,55.43
2019-05-18T04:42:18.947Z,52.58
2019-05-18T04:47:23.180Z,53.83
2019-05-18T04:52:27.741Z,61.50
2019-05-18T04:57:31.986Z,55.12
2019-05-18T05:02:36.243Z,60.75
2019-05-18T05:07:40.503Z,52.78
2019-05-18T05:12:44.870Z,53.25
2019-05-18T05:17:49.075Z,53.33
2019-05-18T05:22:53.328Z,54.55
2019-05-18T05:27:57.599Z,52.43
2019-05-18T05:33:01.843Z,52.13
2019-05-18T05:38:06.185Z,52.60
2019-05-18T05:43:10.479Z,50.12
2019-05-18T05:48:14.718Z,48.60
2019-05-18T05:53:19.010Z,48.13
2019-05-18T05:58:23.265Z,43.80
2019-05-18T06:03:27.515Z,44.30
2019-05-18T06:08:31.798Z,41.73
2019-05-18T06:13:36.067Z,41.55
2019-05-18T06:18:40.969Z,39.60
2019-05-18T06:23:45.214Z,38.28
2019-05-18T06:28:49.459Z,38.60
2019-05-18T06:33:53.720Z,25.77
2019-05-18T06:38:57.969Z,22.87
2019-05-18T06:44:02.242Z,21.65
2019-05-18T06:49:06.493Z,19.73
2019-05-18T06:54:10.723Z,16.80
2019-05-18T06:59:16.555Z,17.67
2019-05-18T07:04:20.832Z,18.87
2019-05-18T07:09:25.113Z,14.45
2019-05-18T07:14:29.373Z,16.20
2019-05-18T07:19:33.636Z,23.12
2019-05-18T07:24:37.912Z,17.80
2019-05-18T07:29:42.177Z,16.17
2019-05-18T07:34:46.423Z,16.20
2019-05-18T07:39:50.757Z,12.75
2019-05-18T07:44:55.033Z,15.30
2019-05-18T07:49:59.305Z,15.43
2019-05-18T07:55:03.731Z,18.92
2019-05-18T08:00:08.701Z,13.00
2019-05-18T08:05:12.975Z,12.85
2019-05-18T08:10:22.792Z,12.95
2019-05-18T08:15:27.038Z,14.18
2019-05-18T08:20:31.290Z,14.23
2019-05-18T08:25:35.507Z,14.98
2019-05-18T08:30:39.773Z,13.10
2019-05-18T08:35:45.127Z,17.32
2019-05-18T08:40:49.380Z,15.78
2019-05-18T08:45:53.633Z,13.53
2019-05-18T08:50:57.903Z,15.03
2019-05-18T08:56:02.164Z,16.75
2019-05-18T09:01:06.410Z,18.77
2019-05-18T09:06:10.779Z,13.35
2019-05-18T09:11:15.038Z,25.72
2019-05-18T09:16:19.330Z,10.13
2019-05-18T09:21:23.592Z,12.37
2019-05-18T09:26:27.864Z,13.28
2019-05-18T09:31:32.161Z,17.35
2019-05-18T09:36:36.406Z,12.82
2019-05-18T09:41:40.644Z,10.93
2019-05-18T09:46:44.886Z,11.78
2019-05-18T09:51:49.136Z,10.50
2019-05-18T09:56:53.378Z,11.20
2019-05-18T10:01:57.822Z,11.73
2019-05-18T10:07:02.079Z,8.88
2019-05-18T10:12:06.324Z,13.48
2019-05-18T10:17:10.580Z,12.45
2019-05-18T10:22:14.809Z,9.50
2019-05-18T10:27:19.065Z,12.70
2019-05-18T10:32:23.412Z,9.43
2019-05-18T10:37:27.652Z,8.78
2019-05-18T10:42:31.906Z,12.40
2019-05-18T10:47:36.144Z,11.48
2019-05-18T10:52:40.400Z,12.60
2019-05-18T10:57:44.769Z,10.35
2019-05-18T11:02:48.991Z,11.22
2019-05-18T11:07:53.241Z,10.98
2019-05-18T11:12:57.477Z,8.23
2019-05-18T11:18:01.719Z,14.05
2019-05-18T11:23:06.030Z,11.65
2019-05-18T11:28:10.268Z,11.73
2019-05-18T11:33:14.553Z,9.35
2019-05-18T11:38:18.797Z,9.38
2019-05-18T11:43:23.074Z,20.32
2019-05-18T11:48:27.299Z,8.95
2019-05-18T11:53:31.556Z,6.92
2019-05-18T11:58:35.803Z,9.78
2019-05-18T12:03:40.075Z,8.85
2019-05-18T12:08:44.332Z,7.37
2019-05-18T12:13:48.567Z,5.87
2019-05-18T12:18:52.806Z,5.80
2019-05-18T12:23:57.068Z,7.10
2019-05-18T12:29:01.323Z,4.95
2019-05-18T12:34:05.699Z,6.08
2019-05-18T12:39:09.981Z,10.63
2019-05-18T12:44:14.239Z,7.95
2019-05-18T12:49:18.486Z,7.15
2019-05-18T12:54:30.869Z,7.75
2019-05-18T12:59:28.686Z,3.47
2019-05-18T13:04:32.944Z,4.08
2019-05-18T13:09:37.192Z,5.65
2019-05-18T13:14:41.433Z,4.25
2019-05-18T13:19:45.684Z,4.53
2019-05-18T13:24:52.307Z,3.37
2019-05-18T13:29:56.360Z,7.67
2019-05-18T13:35:00.621Z,5.03
2019-05-18T13:40:04.986Z,3.85
2019-05-18T13:45:10.225Z,3.17
2019-05-18T13:50:15.180Z,3.17
2019-05-18T13:55:20.272Z,2.83
2019-05-18T14:00:24.654Z,3.45
2019-05-18T14:05:28.909Z,3.00
2019-05-18T14:10:33.174Z,5.17
2019-05-18T14:15:37.410Z,4.90
2019-05-18T14:20:41.643Z,5.15
2019-05-18T14:25:46.267Z,6.47
2019-05-18T14:30:50.593Z,4.22
2019-05-18T14:35:55.016Z,7.37
2019-05-18T14:40:59.262Z,3.55
2019-05-18T14:46:03.515Z,4.00
2019-05-18T14:51:07.908Z,4.08
2019-05-18T14:56:12.121Z,4.15
2019-05-18T15:01:16.368Z,8.90
2019-05-18T15:06:20.607Z,3.70
2019-05-18T15:11:24.874Z,3.15
2019-05-18T15:16:29.119Z,2.80
2019-05-18T15:21:33.357Z,4.65
2019-05-18T15:26:37.614Z,4.08
2019-05-18T15:31:41.862Z,6.70
2019-05-18T15:36:46.094Z,6.30
2019-05-18T15:41:50.328Z,4.08
2019-05-18T15:46:54.587Z,2.20
2019-05-18T15:51:58.813Z,3.37
2019-05-18T15:57:03.051Z,3.17
2019-05-18T16:02:07.488Z,4.15
2019-05-18T16:07:11.717Z,4.67
2019-05-18T16:12:15.958Z,5.78
2019-05-18T16:17:20.249Z,3.87
2019-05-18T16:22:24.507Z,3.33
2019-05-18T16:27:28.828Z,6.33
2019-05-18T16:32:33.050Z,2.80
2019-05-18T16:37:37.311Z,4.35
2019-05-18T16:42:41.602Z,3.92
2019-05-18T16:47:45.895Z,5.40
2019-05-18T16:52:50.102Z,4.35
2019-05-18T16:57:54.349Z,3.75
2019-05-18T17:02:58.626Z,3.75
2019-05-18T17:08:02.864Z,7.17
2019-05-18T17:13:07.097Z,4.15
2019-05-18T17:18:11.336Z,2.95
2019-05-18T17:23:15.886Z,4.20
2019-05-18T17:28:20.142Z,4.03
2019-05-18T17:33:24.413Z,15.15
2019-05-18T17:38:28.644Z,10.48
2019-05-18T17:43:32.911Z,7.95
2019-05-18T17:48:37.174Z,8.35
2019-05-18T17:53:41.413Z,3.67
2019-05-18T17:58:45.697Z,6.42
2019-05-18T18:03:49.931Z,5.53
2019-05-18T18:08:54.316Z,8.48
2019-05-18T18:13:58.580Z,4.65
2019-05-18T18:19:02.847Z,6.22
2019-05-18T18:24:07.239Z,8.28
2019-05-18T18:29:12.242Z,6.90
2019-05-18T18:34:16.624Z,7.15
2019-05-18T18:39:22.763Z,5.80
2019-05-18T18:44:27.082Z,6.92
2019-05-18T18:49:31.591Z,4.90
2019-05-18T18:54:36.005Z,7.08
2019-05-18T18:59:41.062Z,6.08
2019-05-18T19:04:45.311Z,9.70
2019-05-18T19:09:51.605Z,12.55
2019-05-18T19:14:55.873Z,11.70
2019-05-18T19:20:00.233Z,14.03
2019-05-18T19:25:05.342Z,15.83
2019-05-18T19:30:10.364Z,16.60
2019-05-18T19:35:14.853Z,15.48
2019-05-18T19:40:19.400Z,21.73
2019-05-18T19:45:23.675Z,18.20
2019-05-18T19:50:27.945Z,21.00
2019-05-18T19:55:32.193Z,22.70
2019-05-18T20:00:36.440Z,23.42
2019-05-18T20:05:40.696Z,20.72
2019-05-18T20:10:45.117Z,24.92
2019-05-18T20:15:49.427Z,22.00
2019-05-18T20:20:53.684Z,17.40
2019-05-18T20:25:57.935Z,22.48
2019-05-18T20:31:02.484Z,18.85
2019-05-18T20:36:06.903Z,21.50
2019-05-18T20:41:11.170Z,20.85
2019-05-18T20:46:15.456Z,27.77
2019-05-18T20:51:19.726Z,28.32
2019-05-18T20:56:24.012Z,21.10
2019-05-18T21:01:28.351Z,17.95
2019-05-18T21:06:32.617Z,18.65
2019-05-18T21:11:36.871Z,20.15
2019-05-18T21:16:41.114Z,19.45
2019-05-18T21:21:46.419Z,21.12
2019-05-18T21:26:50.684Z,17.92
2019-05-18T21:31:54.936Z,23.42
2019-05-18T21:36:59.295Z,21.07
2019-05-18T21:42:03.606Z,19.27
2019-05-18T21:47:07.888Z,16.90
2019-05-18T21:52:12.180Z,23.77
2019-05-18T21:57:16.460Z,20.82
2019-05-18T22:02:20.734Z,21.00
2019-05-18T22:07:24.988Z,28.45
2019-05-18T22:12:29.267Z,27.50
2019-05-18T22:17:36.463Z,20.65
2019-05-18T22:22:40.715Z,20.85
2019-05-18T22:27:44.970Z,18.75
2019-05-18T22:32:49.229Z,24.02
2019-05-18T22:37:53.588Z,24.82
2019-05-18T22:42:57.824Z,19.98
2019-05-18T22:48:02.153Z,19.98
2019-05-18T22:53:06.399Z,21.85
2019-05-18T22:58:10.660Z,23.57
2019-05-18T23:03:14.922Z,18.05
2019-05-18T23:08:19.189Z,28.70
2019-05-18T23:13:23.452Z,21.65
2019-05-18T23:18:27.714Z,19.23
2019-05-18T23:23:31.961Z,18.92
2019-05-18T23:28:36.217Z,17.80
2019-05-18T23:33:40.478Z,23.47
2019-05-18T23:38:44.779Z,21.55
2019-05-18T23:43:49.028Z,29.72
2019-05-18T23:48:53.305Z,21.62
2019-05-18T23:53:57.586Z,21.68
2019-05-18T23:59:01.845Z,25.40
